Time;durP1;ratioP1;P1;durP2;ratioP2;P2;SDS_P1;SDS_P2;PMS_P1;PMS_P2;Temp;Humidity;BMP_temperature;BMP_pressure;BME280_temperature;BME280_humidity;BME280_pressure;Samples;Min_cycle;Max_cycle;Signal;HPM_P1;HPM_P2
2022/05/12 00:02:05;;;;;;;13.65;8.63;;;14.20;99.90;;;;;;5114792;28;20200;-71
2022/05/12 00:04:32;;;;;;;15.50;8.90;;;14.20;99.90;;;;;;5095790;28;20182;-72
2022/05/12 00:06:58;;;;;;;18.05;8.98;;;14.20;99.90;;;;;;5113701;28;20200;-71
2022/05/12 00:09:25;;;;;;;13.25;8.93;;;14.20;99.90;;;;;;5113937;28;20260;-71
2022/05/12 00:11:52;;;;;;;15.02;9.60;;;14.10;99.90;;;;;;5095578;28;20176;-71
2022/05/12 00:14:18;;;;;;;15.43;10.15;;;14.10;99.90;;;;;;5113927;28;20245;-71
2022/05/12 00:16:44;;;;;;;18.08;10.32;;;14.10;99.90;;;;;;5113889;28;20203;-71
2022/05/12 00:19:10;;;;;;;21.27;11.32;;;14.10;99.90;;;;;;5095502;28;20637;-71
2022/05/12 00:21:36;;;;;;;15.63;11.95;;;14.10;99.90;;;;;;5113428;28;20200;-71
2022/05/12 00:24:02;;;;;;;19.40;11.68;;;14.10;99.90;;;;;;5113760;28;20168;-71
2022/05/12 00:26:37;;;;;;;17.17;12.02;;;14.10;99.90;;;;;;5113689;28;20212;-71
2022/05/12 00:29:06;;;;;;;24.50;12.60;;;14.10;99.90;;;;;;5113857;28;20159;-71
2022/05/12 00:31:35;;;;;;;27.70;15.48;;;14.10;99.90;;;;;;5113680;28;20168;-71
2022/05/12 00:34:01;;;;;;;30.30;17.13;;;14.00;99.90;;;;;;5095496;28;20176;-71
2022/05/12 00:36:27;;;;;;;30.80;18.87;;;14.00;99.90;;;;;;5113268;28;20537;-71
2022/05/12 00:38:52;;;;;;;32.83;19.33;;;14.00;99.90;;;;;;5095362;28;20232;-70
2022/05/12 00:41:18;;;;;;;34.83;20.73;;;14.00;99.90;;;;;;5097251;28;20687;-70
2022/05/12 00:43:47;;;;;;;31.60;21.77;;;14.10;99.90;;;;;;5117552;28;20173;-74
2022/05/12 00:46:22;;;;;;;32.10;20.45;;;14.00;99.90;;;;;;5117092;28;20672;-71
2022/05/12 00:48:49;;;;;;;32.63;20.30;;;14.00;99.90;;;;;;5117347;28;20168;-71
2022/05/12 00:51:21;;;;;;;32.58;20.88;;;14.00;99.90;;;;;;5117116;28;20226;-71
2022/05/12 00:53:49;;;;;;;31.27;19.63;;;14.00;99.90;;;;;;5117438;28;20169;-71
2022/05/12 00:56:18;;;;;;;30.33;19.13;;;13.90;99.90;;;;;;5117005;28;20279;-71
2022/05/12 00:58:45;;;;;;;25.98;19.05;;;13.90;99.90;;;;;;5115793;28;20214;-71
2022/05/12 01:01:11;;;;;;;25.05;17.85;;;13.90;99.90;;;;;;5115705;28;20200;-71
2022/05/12 01:03:42;;;;;;;24.90;17.45;;;14.00;99.90;;;;;;5117460;28;20742;-70
2022/05/12 01:06:10;;;;;;;20.67;16.80;;;14.00;99.90;;;;;;5117160;28;20188;-71
2022/05/12 01:08:36;;;;;;;24.90;17.23;;;13.90;99.90;;;;;;5117044;28;20190;-70
2022/05/12 01:11:10;;;;;;;21.40;15.35;;;13.90;99.90;;;;;;5117163;28;20200;-71
2022/05/12 01:13:36;;;;;;;22.90;14.95;;;13.90;99.90;;;;;;5117565;28;20199;-71
2022/05/12 01:16:03;;;;;;;22.17;13.93;;;13.80;99.90;;;;;;5117418;28;20193;-70
2022/05/12 01:18:31;;;;;;;21.58;12.55;;;13.80;99.90;;;;;;5117196;28;20226;-70
2022/05/12 01:20:58;;;;;;;16.52;10.90;;;13.70;99.90;;;;;;5117003;28;20211;-69
2022/05/12 01:23:31;;;;;;;20.63;11.07;;;13.70;99.90;;;;;;5117020;28;20232;-69
2022/05/12 01:26:06;;;;;;;18.58;10.15;;;13.70;99.90;;;;;;5117083;28;20185;-70
2022/05/12 01:28:32;;;;;;;13.02;8.05;;;13.50;99.90;;;;;;5116939;28;20613;-69
2022/05/12 01:30:59;;;;;;;13.60;8.60;;;13.50;99.90;;;;;;5116807;28;20179;-69
2022/05/12 01:33:25;;;;;;;13.73;7.28;;;13.40;99.90;;;;;;5116621;28;20176;-69
2022/05/12 01:35:51;;;;;;;13.57;7.32;;;13.40;99.90;;;;;;5115970;28;20246;-69
2022/05/12 01:38:17;;;;;;;13.77;7.57;;;13.30;99.90;;;;;;5116393;28;20624;-69
2022/05/12 01:40:44;;;;;;;11.23;6.50;;;13.30;99.90;;;;;;5097962;28;20246;-70
2022/05/12 01:43:11;;;;;;;11.50;7.30;;;13.30;99.90;;;;;;5116349;28;20167;-70
2022/05/12 01:45:37;;;;;;;10.45;6.78;;;13.30;99.90;;;;;;5097628;28;20199;-69
2022/05/12 01:48:06;;;;;;;9.83;5.40;;;13.20;99.90;;;;;;5097713;28;20575;-70
2022/05/12 01:50:33;;;;;;;10.77;5.17;;;13.10;99.90;;;;;;5116345;28;20221;-69
2022/05/12 01:52:59;;;;;;;7.93;4.85;;;13.10;99.90;;;;;;5097061;28;20561;-70
2022/05/12 01:55:26;;;;;;;7.88;5.03;;;13.00;99.90;;;;;;5115734;28;20183;-69
2022/05/12 01:57:52;;;;;;;11.98;5.32;;;13.00;99.90;;;;;;5097369;28;20173;-69
2022/05/12 02:00:22;;;;;;;8.02;5.05;;;12.90;99.90;;;;;;5097373;28;20204;-69
2022/05/12 02:02:49;;;;;;;8.57;5.10;;;12.90;99.90;;;;;;5097554;28;20183;-70
2022/05/12 02:05:15;;;;;;;13.33;5.30;;;12.80;99.90;;;;;;5115515;28;20160;-69
2022/05/12 02:07:43;;;;;;;7.83;4.93;;;12.80;99.90;;;;;;5115265;28;20249;-70
2022/05/12 02:10:12;;;;;;;8.38;4.80;;;12.70;99.90;;;;;;5097188;28;20190;-69
2022/05/12 02:12:38;;;;;;;8.07;4.83;;;12.70;99.90;;;;;;5115340;28;20633;-70
2022/05/12 02:15:05;;;;;;;10.50;5.70;;;12.70;99.90;;;;;;5097337;28;20172;-70
2022/05/12 02:17:32;;;;;;;6.93;5.10;;;12.60;99.90;;;;;;5097085;28;20198;-70
2022/05/12 02:19:58;;;;;;;10.53;5.90;;;12.50;99.90;;;;;;5115387;28;20160;-69
2022/05/12 02:22:24;;;;;;;6.63;5.10;;;12.50;99.90;;;;;;5096865;28;20589;-69
2022/05/12 02:24:50;;;;;;;8.07;5.05;;;12.50;99.90;;;;;;5115176;28;20176;-70
2022/05/12 02:27:16;;;;;;;7.43;4.50;;;12.50;99.90;;;;;;5115116;28;20200;-70
2022/05/12 02:29:42;;;;;;;7.20;4.97;;;12.40;99.90;;;;;;5115166;28;20583;-70
2022/05/12 02:32:08;;;;;;;8.33;4.80;;;12.40;99.90;;;;;;5115036;28;20184;-70
2022/05/12 02:34:34;;;;;;;11.03;4.53;;;12.30;99.90;;;;;;5115009;28;20176;-69
2022/05/12 02:37:01;;;;;;;8.90;5.10;;;12.20;99.90;;;;;;5114813;28;20215;-70
2022/05/12 02:39:32;;;;;;;6.63;4.87;;;12.10;99.90;;;;;;5114978;28;20187;-69
2022/05/12 02:41:59;;;;;;;10.07;4.90;;;12.10;99.90;;;;;;5115188;28;20223;-70
2022/05/12 02:44:25;;;;;;;11.67;5.00;;;12.10;99.90;;;;;;5096640;28;20172;-70
2022/05/12 02:46:51;;;;;;;9.20;4.97;;;12.10;99.90;;;;;;5114882;28;20272;-70
2022/05/12 02:49:16;;;;;;;8.87;5.07;;;12.00;99.90;;;;;;5115213;28;20216;-69
2022/05/12 02:51:43;;;;;;;9.00;4.77;;;12.00;99.90;;;;;;5114652;28;20208;-69
2022/05/12 02:54:11;;;;;;;7.93;4.90;;;11.90;99.90;;;;;;5115241;28;20257;-69
2022/05/12 02:56:38;;;;;;;12.60;5.20;;;11.90;99.90;;;;;;5114754;28;20871;-70
2022/05/12 02:59:05;;;;;;;6.80;4.73;;;11.90;99.90;;;;;;5114788;28;20179;-69
2022/05/12 03:01:31;;;;;;;10.73;5.10;;;11.80;99.90;;;;;;5096413;28;20200;-69
2022/05/12 03:03:57;;;;;;;8.77;4.43;;;11.80;99.90;;;;;;5095909;28;20175;-69
2022/05/12 03:06:23;;;;;;;10.33;5.17;;;11.70;99.90;;;;;;5114149;28;20202;-70
2022/05/12 03:08:48;;;;;;;8.03;4.53;;;11.80;99.90;;;;;;5096454;28;20275;-70
2022/05/12 03:11:14;;;;;;;7.87;4.70;;;11.70;99.90;;;;;;5096543;28;20201;-70
2022/05/12 03:13:40;;;;;;;5.33;4.13;;;11.70;99.90;;;;;;5096433;28;20565;-69
2022/05/12 03:16:06;;;;;;;10.07;4.50;;;11.70;99.90;;;;;;5114410;28;20736;-68
2022/05/12 03:18:32;;;;;;;7.40;4.53;;;11.80;99.90;;;;;;5114810;28;20176;-69
2022/05/12 03:20:57;;;;;;;10.30;5.40;;;11.90;99.90;;;;;;5095880;28;20257;-69
2022/05/12 03:23:23;;;;;;;10.47;5.27;;;11.90;99.90;;;;;;5114423;28;20240;-69
2022/05/12 03:25:51;;;;;;;7.77;5.33;;;11.80;99.90;;;;;;5115056;28;20192;-69
2022/05/12 03:28:17;;;;;;;12.93;5.90;;;11.80;99.90;;;;;;5114521;28;20168;-69
2022/05/12 03:30:43;;;;;;;12.53;5.50;;;11.70;99.90;;;;;;5096094;28;20206;-69
2022/05/12 03:33:10;;;;;;;14.00;6.27;;;11.60;99.90;;;;;;5096054;28;20180;-69
2022/05/12 03:35:37;;;;;;;9.10;5.43;;;11.50;99.90;;;;;;5114607;28;20172;-68
2022/05/12 03:38:03;;;;;;;9.97;5.50;;;11.50;99.90;;;;;;5095920;28;20199;-69
2022/05/12 03:40:30;;;;;;;12.43;6.10;;;11.50;99.90;;;;;;5114252;28;20232;-68
2022/05/12 03:42:59;;;;;;;9.27;5.23;;;11.40;99.90;;;;;;5114345;28;20176;-73
2022/05/12 03:45:29;;;;;;;8.77;5.10;;;11.40;99.90;;;;;;5095945;28;20187;-69
2022/05/12 03:47:57;;;;;;;8.53;5.10;;;11.30;99.90;;;;;;5114160;28;20207;-69
2022/05/12 03:50:25;;;;;;;8.23;5.57;;;11.30;99.90;;;;;;5114644;28;20255;-69
2022/05/12 03:52:53;;;;;;;8.27;5.50;;;11.30;99.90;;;;;;5114136;28;20195;-68
2022/05/12 03:55:23;;;;;;;9.30;5.50;;;11.30;99.90;;;;;;5114167;28;20189;-69
2022/05/12 03:57:53;;;;;;;8.70;5.43;;;11.40;99.90;;;;;;5114855;28;20533;-69
2022/05/12 04:00:24;;;;;;;11.87;5.20;;;11.50;99.90;;;;;;5096708;28;20212;-69
2022/05/12 04:02:50;;;;;;;8.97;5.17;;;11.40;99.90;;;;;;5114942;28;20157;-68
2022/05/12 04:05:18;;;;;;;9.27;5.03;;;11.40;99.90;;;;;;5114816;28;20196;-69
2022/05/12 04:07:44;;;;;;;9.33;4.93;;;11.30;99.90;;;;;;5114073;28;20196;-68
2022/05/12 04:10:14;;;;;;;8.87;5.00;;;11.30;99.90;;;;;;5114275;28;20621;-68
2022/05/12 04:12:40;;;;;;;9.57;5.40;;;11.40;99.90;;;;;;5114201;28;20256;-69
2022/05/12 04:15:08;;;;;;;11.20;5.57;;;11.30;99.90;;;;;;5095841;28;20626;-68
2022/05/12 04:17:33;;;;;;;10.10;4.77;;;11.30;99.90;;;;;;5118460;28;20220;-68
2022/05/12 04:20:06;;;;;;;9.73;5.23;;;11.30;99.90;;;;;;5099607;28;20274;-68
2022/05/12 04:22:33;;;;;;;8.80;5.53;;;11.30;99.90;;;;;;5117675;28;20178;-68
2022/05/12 04:24:59;;;;;;;8.97;4.90;;;11.30;99.90;;;;;;5117741;28;20169;-68
2022/05/12 04:27:25;;;;;;;12.10;4.90;;;11.30;99.90;;;;;;5117731;28;20667;-68
2022/05/12 04:29:51;;;;;;;9.60;5.07;;;11.30;99.90;;;;;;5118265;28;20172;-68
2022/05/12 04:32:17;;;;;;;7.73;5.50;;;11.30;99.90;;;;;;5118034;28;20181;-68
2022/05/12 04:37:29;;;;;;;9.33;6.00;;;11.30;99.90;;;;;;5117322;28;20640;-69
2022/05/12 04:40:02;;;;;;;9.83;6.03;;;11.30;99.90;;;;;;5117877;28;20184;-68
2022/05/12 04:42:28;;;;;;;10.33;5.97;;;11.30;99.90;;;;;;5117812;28;20203;-68
2022/05/12 04:44:54;;;;;;;10.03;5.60;;;11.40;99.90;;;;;;5117237;28;20188;-68
2022/05/12 04:47:20;;;;;;;11.93;5.70;;;11.30;99.90;;;;;;5117686;28;20203;-69
2022/05/12 04:49:45;;;;;;;7.23;5.80;;;11.30;99.90;;;;;;5117560;28;20177;-69
2022/05/12 04:52:11;;;;;;;13.13;5.87;;;11.40;99.90;;;;;;5098933;28;20187;-68
2022/05/12 04:54:38;;;;;;;11.13;5.77;;;11.50;99.90;;;;;;5117231;28;20177;-68
2022/05/12 04:57:04;;;;;;;8.97;5.70;;;11.50;99.90;;;;;;5117046;28;20718;-68
2022/05/12 04:59:31;;;;;;;11.37;6.37;;;11.60;99.90;;;;;;5117710;28;20190;-68
2022/05/12 05:01:57;;;;;;;9.30;5.70;;;11.60;99.90;;;;;;5117054;28;20207;-68
2022/05/12 05:04:23;;;;;;;9.07;5.73;;;11.70;99.90;;;;;;5098876;28;20181;-69
2022/05/12 05:06:49;;;;;;;16.80;6.67;;;11.70;99.90;;;;;;5117138;28;20192;-70
2022/05/12 05:09:14;;;;;;;10.57;5.73;;;11.80;99.90;;;;;;5098647;28;20180;-69
2022/05/12 05:11:40;;;;;;;10.67;6.07;;;11.80;99.90;;;;;;5117174;28;20221;-69
2022/05/12 05:14:06;;;;;;;11.80;6.20;;;11.80;99.90;;;;;;5116853;28;20188;-70
2022/05/12 05:16:32;;;;;;;11.37;5.47;;;11.90;99.90;;;;;;5117334;28;20195;-70
2022/05/12 05:18:58;;;;;;;12.80;6.33;;;11.90;99.90;;;;;;5104178;28;20280;-69
2022/05/12 05:21:24;;;;;;;11.40;5.83;;;12.10;99.90;;;;;;5119660;28;20653;-69
2022/05/12 05:23:50;;;;;;;14.70;6.17;;;12.10;99.90;;;;;;5117200;28;20172;-69
2022/05/12 05:26:15;;;;;;;10.27;5.93;;;12.20;99.90;;;;;;5098282;28;20279;-70
2022/05/12 05:28:41;;;;;;;11.80;6.20;;;12.20;99.90;;;;;;5115823;28;20562;-70
2022/05/12 05:31:07;;;;;;;10.73;6.03;;;12.20;99.90;;;;;;5116711;28;20160;-70
2022/05/12 05:33:33;;;;;;;12.07;5.77;;;12.20;99.90;;;;;;5116883;28;20187;-70
2022/05/12 05:35:59;;;;;;;8.57;5.20;;;12.40;99.90;;;;;;5116878;28;20192;-71
2022/05/12 05:38:25;;;;;;;9.30;5.77;;;12.50;99.90;;;;;;5098693;28;20179;-69
2022/05/12 05:40:51;;;;;;;8.93;6.10;;;12.60;99.90;;;;;;5116712;28;20199;-68
2022/05/12 05:43:20;;;;;;;11.90;5.63;;;12.70;99.90;;;;;;5116276;28;20575;-68
2022/05/12 05:45:47;;;;;;;9.87;6.10;;;12.70;99.90;;;;;;5116544;28;20211;-68
2022/05/12 05:48:13;;;;;;;11.93;6.73;;;12.70;99.90;;;;;;5097862;28;20177;-68
2022/05/12 05:53:28;;;;;;;10.07;7.97;;;12.90;99.90;;;;;;5116014;28;20207;-68
2022/05/12 05:55:59;;;;;;;10.77;7.20;;;12.90;99.90;;;;;;5116143;28;20287;-68
2022/05/12 05:58:25;;;;;;;13.77;7.40;;;13.00;99.90;;;;;;5116162;28;20168;-68
2022/05/12 06:00:51;;;;;;;14.50;7.47;;;13.00;99.90;;;;;;5116270;28;20193;-68
2022/05/12 06:03:17;;;;;;;13.77;7.73;;;13.00;99.90;;;;;;5097605;28;20187;-68
2022/05/12 06:05:43;;;;;;;14.00;7.00;;;13.00;99.90;;;;;;5115990;28;20272;-69
2022/05/12 06:08:11;;;;;;;14.63;7.33;;;13.00;99.90;;;;;;5096904;28;20583;-68
2022/05/12 06:10:38;;;;;;;16.47;7.47;;;13.00;99.90;;;;;;5115703;28;20628;-68
2022/05/12 06:13:05;;;;;;;12.17;7.60;;;13.00;99.90;;;;;;5115573;28;20207;-67
2022/05/12 06:15:30;;;;;;;9.53;6.70;;;13.10;99.90;;;;;;5115174;28;20180;-67
2022/05/12 06:17:56;;;;;;;8.27;6.37;;;13.20;99.90;;;;;;5097128;28;20173;-67
2022/05/12 06:20:23;;;;;;;14.45;6.32;;;13.20;99.90;;;;;;5115384;28;20183;-66
2022/05/12 06:22:49;;;;;;;12.37;6.30;;;13.20;99.90;;;;;;5096985;28;20641;-67
2022/05/12 06:25:16;;;;;;;11.45;7.00;;;13.40;99.90;;;;;;5115269;28;20160;-66
2022/05/12 06:27:45;;;;;;;11.07;6.60;;;13.40;99.90;;;;;;5096852;28;20275;-67
2022/05/12 06:30:13;;;;;;;10.05;5.97;;;13.50;99.90;;;;;;5115298;28;20293;-67
2022/05/12 06:32:40;;;;;;;14.90;6.30;;;13.70;99.90;;;;;;5115218;28;20251;-67
2022/05/12 06:35:08;;;;;;;12.10;6.35;;;13.80;99.90;;;;;;5096818;28;20199;-67
2022/05/12 06:37:35;;;;;;;11.60;5.30;;;13.90;99.90;;;;;;5114845;28;20184;-67
2022/05/12 06:40:01;;;;;;;14.65;6.15;;;13.90;99.90;;;;;;5115132;28;20161;-66
2022/05/12 06:42:27;;;;;;;8.65;5.65;;;14.00;99.90;;;;;;5096668;28;20200;-67
2022/05/12 06:44:54;;;;;;;10.35;6.03;;;14.20;99.90;;;;;;5096722;28;20168;-67
2022/05/12 06:47:20;;;;;;;8.43;5.68;;;14.20;99.90;;;;;;5114934;28;20184;-66
2022/05/12 06:49:50;;;;;;;11.50;5.35;;;14.20;99.90;;;;;;5114705;28;20169;-66
2022/05/12 06:52:16;;;;;;;8.77;4.93;;;14.20;99.90;;;;;;5114740;28;20152;-67
2022/05/12 06:54:44;;;;;;;10.85;5.50;;;14.20;99.90;;;;;;5114695;28;20168;-67
2022/05/12 06:57:11;;;;;;;12.48;5.78;;;14.30;99.90;;;;;;5096312;28;20200;-67
2022/05/12 06:59:39;;;;;;;10.20;5.35;;;14.40;99.90;;;;;;5114790;28;20179;-66
2022/05/12 07:02:06;;;;;;;10.52;4.90;;;14.40;99.90;;;;;;5096273;28;20208;-67
2022/05/12 07:04:32;;;;;;;8.95;5.25;;;14.50;99.90;;;;;;5114495;28;20631;-67
2022/05/12 07:06:59;;;;;;;12.50;5.50;;;14.70;99.90;;;;;;5114339;28;20192;-67
2022/05/12 07:09:25;;;;;;;12.65;5.95;;;14.80;99.90;;;;;;5114325;28;20702;-67
2022/05/12 07:11:52;;;;;;;9.20;6.18;;;14.80;99.90;;;;;;5114527;28;20224;-67
2022/05/12 07:14:17;;;;;;;10.70;5.53;;;14.70;99.90;;;;;;5096113;28;20203;-67
2022/05/12 07:16:44;;;;;;;10.73;6.85;;;14.80;99.90;;;;;;5114119;28;20338;-67
2022/05/12 07:19:14;;;;;;;12.15;6.60;;;14.80;99.90;;;;;;5114105;28;20547;-67
2022/05/12 07:27:13;;;;;;;9.02;5.93;;;15.00;99.90;;;;;;5114108;28;20626;-67
2022/05/12 07:29:39;;;;;;;12.32;6.00;;;15.00;99.90;;;;;;5114317;28;20168;-66
2022/05/12 07:32:05;;;;;;;10.23;6.50;;;15.10;99.90;;;;;;5095770;28;20240;-66
2022/05/12 07:34:31;;;;;;;11.02;6.55;;;15.20;99.90;;;;;;5114427;28;20171;-66
2022/05/12 07:36:57;;;;;;;9.35;5.97;;;15.10;99.90;;;;;;5113761;28;20192;-66
2022/05/12 07:39:28;;;;;;;9.38;6.03;;;15.10;99.90;;;;;;5114531;28;20181;-66
2022/05/12 07:41:56;;;;;;;11.15;5.78;;;15.20;99.90;;;;;;5114263;28;20189;-66
2022/05/12 07:44:29;;;;;;;10.70;6.45;;;15.30;99.90;;;;;;5114220;28;20255;-66
2022/05/12 07:46:54;;;;;;;12.40;6.63;;;15.40;99.90;;;;;;5114064;28;20275;-66
2022/05/12 07:49:20;;;;;;;9.40;6.25;;;15.30;99.90;;;;;;5113890;28;20261;-66
2022/05/12 07:51:46;;;;;;;11.13;6.10;;;15.40;99.90;;;;;;5116489;28;20187;-66
2022/05/12 07:54:12;;;;;;;7.82;5.30;;;15.50;99.90;;;;;;5118063;28;20592;-66
2022/05/12 07:56:38;;;;;;;9.57;5.78;;;15.50;99.90;;;;;;5099967;28;20238;-66
2022/05/12 07:59:05;;;;;;;9.15;5.32;;;15.50;99.90;;;;;;5099760;28;20278;-66
2022/05/12 08:01:31;;;;;;;8.07;5.78;;;15.50;99.90;;;;;;5099473;28;20229;-66
2022/05/12 08:03:57;;;;;;;7.88;5.70;;;15.40;99.90;;;;;;5099626;28;20177;-66
2022/05/12 08:06:23;;;;;;;7.78;5.75;;;15.40;99.90;;;;;;5117962;28;20281;-66
2022/05/12 08:08:50;;;;;;;9.23;5.57;;;15.60;99.90;;;;;;5117487;28;20525;-66
2022/05/12 08:11:17;;;;;;;6.63;5.28;;;15.90;99.90;;;;;;5117920;28;20200;-66
2022/05/12 08:13:45;;;;;;;10.50;6.10;;;15.80;99.90;;;;;;5117655;28;20192;-66
2022/05/12 08:16:10;;;;;;;6.95;6.00;;;15.60;1.00;;;;;;5099318;28;20340;-66
2022/05/12 08:18:37;;;;;;;8.10;6.45;;;15.50;1.00;;;;;;5099308;28;20633;-65
2022/05/12 08:21:03;;;;;;;8.85;6.00;;;15.80;1.00;;;;;;5117473;28;20200;-65
2022/05/12 08:23:29;;;;;;;12.55;5.80;;;16.10;99.90;;;;;;5117262;28;20172;-64
2022/05/12 08:25:55;;;;;;;9.32;5.88;;;16.40;1.00;;;;;;5117570;28;20195;-66
2022/05/12 08:28:22;;;;;;;6.80;5.18;;;16.40;99.90;;;;;;5117468;28;20168;-64
2022/05/12 08:30:49;;;;;;;6.20;5.00;;;16.50;1.00;;;;;;5117400;28;20180;-64
2022/05/12 08:33:16;;;;;;;11.00;5.90;;;16.60;99.90;;;;;;5099068;28;20225;-64
2022/05/12 08:35:43;;;;;;;5.80;4.82;;;16.80;1.00;;;;;;5117231;28;20254;-64
2022/05/12 08:38:10;;;;;;;6.03;4.10;;;16.80;99.90;;;;;;5098536;28;20275;-65
2022/05/12 08:40:52;;;;;;;6.88;3.95;;;16.60;99.90;;;;;;5117550;28;20196;-64
2022/05/12 08:43:49;;;;;;;4.68;3.42;;;16.60;99.90;;;;;;5117115;28;20173;-66
2022/05/12 08:46:19;;;;;;;4.78;3.30;;;16.70;89.70;;;;;;5098899;28;20193;-66
2022/05/12 08:48:46;;;;;;;4.65;3.65;;;16.80;1.00;;;;;;5117626;28;20163;-66
2022/05/12 08:51:18;;;;;;;5.55;3.05;;;16.70;95.10;;;;;;5117080;28;20255;-66
2022/05/12 08:54:02;;;;;;;7.63;3.58;;;16.70;99.90;;;;;;5116724;28;20247;-66
2022/05/12 08:56:28;;;;;;;8.38;3.78;;;16.60;99.90;;;;;;5098453;28;20207;-66
2022/05/12 08:58:56;;;;;;;5.05;3.60;;;16.50;1.00;;;;;;5116996;28;20172;-66
2022/05/12 09:02:10;;;;;;;6.93;3.60;;;16.50;98.40;;;;;;5098420;28;20711;-66
2022/05/12 09:04:44;;;;;;;5.65;3.63;;;16.50;99.90;;;;;;5026373;28;20198;-67
2022/05/12 09:07:28;;;;;;;6.40;3.50;;;16.80;99.90;;;;;;5116270;28;20192;-67
2022/05/12 09:10:06;;;;;;;5.95;3.33;;;17.20;29.30;;;;;;5116626;28;20185;-67
2022/05/12 09:12:41;;;;;;;6.05;3.28;;;17.40;1.00;;;;;;5116635;28;20208;-69
2022/05/12 09:15:19;;;;;;;5.80;3.58;;;17.60;1.00;;;;;;5116647;28;20179;-69
2022/05/12 09:17:52;;;;;;;7.70;3.60;;;17.50;1.00;;;;;;5116606;28;20608;-68
2022/05/12 09:20:18;;;;;;;6.15;3.85;;;17.40;1.00;;;;;;5116408;28;20218;-68
2022/05/12 09:22:44;;;;;;;8.90;3.67;;;17.30;99.90;;;;;;5097995;28;20172;-69
2022/05/12 09:25:26;;;;;;;5.38;3.63;;;17.80;99.90;;;;;;5116690;28;20191;-69
2022/05/12 09:27:52;;;;;;;6.75;4.32;;;18.10;99.90;;;;;;5116651;28;20205;-68
2022/05/12 09:30:33;;;;;;;7.05;3.72;;;18.30;1.00;;;;;;5098018;28;20180;-68
2022/05/12 09:33:00;;;;;;;6.38;3.85;;;18.10;1.00;;;;;;5116382;28;20157;-69
2022/05/12 09:35:28;;;;;;;4.70;2.75;;;18.20;1.00;;;;;;5116575;28;20509;-70
2022/05/12 09:37:55;;;;;;;5.97;3.20;;;18.30;1.00;;;;;;5097302;28;20237;-70
2022/05/12 09:40:34;;;;;;;5.95;3.20;;;18.60;1.00;;;;;;5115858;28;20633;-70
2022/05/12 09:43:17;;;;;;;8.32;3.65;;;18.60;1.00;;;;;;5115910;28;20243;-70
2022/05/12 09:46:01;;;;;;;5.72;3.38;;;18.50;99.90;;;;;;5115824;28;20580;-70
2022/05/12 09:48:29;;;;;;;9.77;4.57;;;18.90;1.00;;;;;;5097613;28;20180;-70
2022/05/12 09:51:22;;;;;;;5.03;3.38;;;18.70;1.00;;;;;;5116010;28;20685;-70
2022/05/12 09:53:50;;;;;;;6.07;3.63;;;18.70;1.00;;;;;;5115582;28;20176;-70
2022/05/12 09:56:32;;;;;;;9.18;3.33;;;18.80;1.00;;;;;;5115610;28;20669;-70
2022/05/12 09:59:10;;;;;;;3.75;2.92;;;19.00;1.00;;;;;;5097416;28;20203;-70
2022/05/12 10:01:58;;;;;;;3.47;3.03;;;19.10;7.90;;;;;;5115851;28;20188;-71
2022/05/12 10:10:13;;;;;;;5.15;2.88;;;19.00;1.00;;;;;;5115779;28;20202;-71
2022/05/12 10:12:49;;;;;;;7.00;2.97;;;19.30;1.00;;;;;;5115241;28;20168;-71
2022/05/12 10:15:24;;;;;;;3.47;2.67;;;19.40;99.90;;;;;;5096793;28;20263;-70
2022/05/12 10:18:10;;;;;;;5.65;3.00;;;19.10;1.00;;;;;;5115735;28;20161;-70
2022/05/12 10:20:42;;;;;;;11.93;3.58;;;19.10;99.90;;;;;;5115746;28;20245;-70
2022/05/12 10:23:24;;;;;;;7.57;3.00;;;19.20;1.00;;;;;;5115157;28;20161;-70
2022/05/12 10:26:02;;;;;;;5.40;2.90;;;19.20;99.90;;;;;;5096751;28;20235;-70
2022/05/12 10:29:05;;;;;;;6.05;2.90;;;19.20;1.00;;;;;;5115401;28;20165;-71
2022/05/12 10:31:47;;;;;;;5.18;2.80;;;19.30;99.90;;;;;;5096788;28;20202;-70
2022/05/12 10:34:19;;;;;;;4.20;2.78;;;19.70;1.00;;;;;;5115032;28;20222;-70
2022/05/12 10:36:56;;;;;;;4.32;2.60;;;19.40;99.90;;;;;;5096698;28;20200;-70
2022/05/12 10:39:27;;;;;;;5.53;2.75;;;19.50;73.20;;;;;;5096661;28;20345;-71
2022/05/12 10:42:08;;;;;;;4.15;2.55;;;19.40;99.90;;;;;;5115142;28;20184;-71
2022/05/12 10:44:45;;;;;;;4.43;2.78;;;19.30;1.00;;;;;;5097007;28;20161;-71
2022/05/12 10:47:30;;;;;;;5.57;2.92;;;19.30;99.90;;;;;;5115265;28;20603;-71
2022/05/12 10:50:22;;;;;;;6.35;3.75;;;19.30;99.90;;;;;;5114775;28;20161;-70
2022/05/12 10:53:03;;;;;;;5.25;3.33;;;19.40;3.20;;;;;;5114527;28;20153;-69
2022/05/12 10:56:13;;;;;;;7.55;3.47;;;19.80;1.00;;;;;;5114667;28;20525;-69
2022/05/12 10:58:43;;;;;;;5.45;3.70;;;19.80;99.90;;;;;;5114892;28;20613;-68
2022/05/12 11:01:15;;;;;;;4.95;3.67;;;20.30;1.00;;;;;;5114685;28;20203;-68
2022/05/12 11:03:59;;;;;;;7.45;3.75;;;20.50;6.10;;;;;;5114460;28;20160;-68
2022/05/12 11:06:30;;;;;;;7.25;3.78;;;20.50;1.00;;;;;;5114706;28;20199;-68
2022/05/12 11:09:18;;;;;;;4.32;3.17;;;20.20;1.00;;;;;;5114178;28;20176;-68
2022/05/12 11:11:45;;;;;;;6.63;3.35;;;20.10;1.00;;;;;;5095658;28;20184;-70
2022/05/12 11:14:11;;;;;;;6.40;3.80;;;20.30;1.00;;;;;;5114553;28;20220;-70
2022/05/12 11:16:53;;;;;;;4.75;3.42;;;20.60;1.00;;;;;;5114313;28;20269;-68
2022/05/12 11:19:23;;;;;;;6.38;4.00;;;20.80;30.90;;;;;;5118991;28;20153;-69
2022/05/12 11:22:08;;;;;;;5.72;3.92;;;20.50;1.00;;;;;;5115949;28;20192;-68
2022/05/12 11:25:05;;;;;;;6.35;3.47;;;20.00;1.00;;;;;;5115755;28;20541;-67
2022/05/12 11:31:25;;;;;;;7.65;4.53;;;20.60;1.00;;;;;;5080660;28;20184;-70
2022/05/12 11:34:04;;;;;;;4.72;3.38;;;20.80;99.90;;;;;;5097564;28;20172;-69
2022/05/12 11:36:36;;;;;;;5.55;3.30;;;21.20;99.90;;;;;;5118228;28;20326;-71
2022/05/12 11:39:20;;;;;;;7.68;3.65;;;21.40;1.00;;;;;;5117879;28;20181;-69
2022/05/12 11:41:46;;;;;;;6.00;3.15;;;21.10;1.00;;;;;;5098094;28;20602;-67
2022/05/12 11:44:24;;;;;;;3.92;3.10;;;21.10;1.00;;;;;;5116481;28;20152;-70
2022/05/12 11:47:01;;;;;;;7.45;3.50;;;21.10;99.90;;;;;;5116179;28;20195;-69
2022/05/12 11:50:09;;;;;;;4.55;3.15;;;21.00;1.00;;;;;;5096639;28;20172;-70
2022/05/12 11:52:58;;;;;;;8.10;3.40;;;21.00;99.90;;;;;;5114799;28;20182;-68
2022/05/12 11:55:52;;;;;;;6.03;2.88;;;20.80;1.00;;;;;;5096132;28;20160;-67
2022/05/12 11:58:32;;;;;;;8.13;2.70;;;20.80;1.00;;;;;;5096944;28;20691;-68
2022/05/12 12:01:01;;;;;;;4.65;2.90;;;21.10;96.70;;;;;;5114601;28;20195;-69
2022/05/12 12:03:29;;;;;;;5.95;3.05;;;21.30;1.00;;;;;;5096332;28;20226;-66
2022/05/12 12:05:54;;;;;;;6.22;3.70;;;21.40;1.00;;;;;;5114023;28;20597;-68
2022/05/12 12:08:32;;;;;;;10.13;3.85;;;21.20;1.00;;;;;;5113682;28;20180;-68
2022/05/12 12:11:41;;;;;;;4.68;3.60;;;21.10;1.00;;;;;;5113817;28;20164;-68
2022/05/12 12:14:07;;;;;;;6.38;3.53;;;20.90;99.90;;;;;;5065946;28;20623;-68
2022/05/12 12:17:10;;;;;;;10.90;4.63;;;20.80;1.00;;;;;;5113599;28;20208;-68
2022/05/12 12:19:48;;;;;;;5.00;3.53;;;20.70;99.90;;;;;;5113722;28;20157;-68
2022/05/12 12:22:21;;;;;;;3.92;3.30;;;20.30;1.00;;;;;;5113624;28;20691;-68
2022/05/12 12:24:54;;;;;;;8.93;4.25;;;20.20;99.90;;;;;;5095557;28;20176;-68
2022/05/12 12:27:27;;;;;;;8.77;3.75;;;19.90;99.90;;;;;;5113428;28;20192;-68
2022/05/12 12:29:54;;;;;;;6.93;3.50;;;19.90;1.00;;;;;;5095271;28;20505;-68
2022/05/12 12:32:32;;;;;;;7.93;3.38;;;20.30;1.00;;;;;;5113587;28;20184;-68
2022/05/12 12:35:25;;;;;;;6.15;3.00;;;20.90;1.00;;;;;;5113794;28;20330;-68
2022/05/12 12:37:51;;;;;;;8.88;3.70;;;21.40;1.00;;;;;;5115636;28;20188;-69
2022/05/12 12:40:32;;;;;;;5.60;3.38;;;21.10;1.00;;;;;;5117163;28;20172;-68
2022/05/12 12:43:27;;;;;;;5.13;2.97;;;20.60;99.90;;;;;;5098729;28;20210;-68
2022/05/12 12:45:54;;;;;;;8.73;3.80;;;20.20;1.00;;;;;;5116983;28;20222;-68
2022/05/12 12:48:31;;;;;;;8.45;3.55;;;19.90;1.00;;;;;;5098710;28;20172;-68
2022/05/12 12:50:56;;;;;;;5.63;3.60;;;19.90;1.00;;;;;;5098745;28;20624;-69
2022/05/12 12:56:30;;;;;;;7.10;3.10;;;19.80;99.90;;;;;;5116975;28;20174;-68
2022/05/12 12:56:35;;;;;;;5.93;3.45;;;19.80;99.90;;;;;;5116194;28;20287;-68
2022/05/12 12:59:09;;;;;;;5.15;2.90;;;19.70;1.00;;;;;;5117236;28;20191;-70
2022/05/12 13:01:52;;;;;;;6.72;3.50;;;20.00;99.90;;;;;;5116715;28;20207;-69
2022/05/12 13:04:32;;;;;;;3.75;2.97;;;20.70;1.00;;;;;;5116884;28;20199;-69
2022/05/12 13:07:03;;;;;;;6.75;3.58;;;20.90;1.00;;;;;;5116786;28;20194;-68
2022/05/12 13:09:35;;;;;;;9.55;3.10;;;20.60;99.90;;;;;;5116506;28;20191;-70
2022/05/12 13:12:09;;;;;;;9.98;3.47;;;20.70;1.00;;;;;;5116905;28;20518;-67
2022/05/12 13:14:37;;;;;;;8.73;3.50;;;21.00;1.00;;;;;;5098851;28;20248;-69
2022/05/12 13:17:05;;;;;;;8.30;3.65;;;21.10;99.90;;;;;;5117110;28;20195;-70
2022/05/12 13:19:39;;;;;;;3.75;2.42;;;21.30;41.90;;;;;;5116563;28;20234;-69
2022/05/12 13:22:09;;;;;;;5.50;2.67;;;21.60;1.00;;;;;;5116953;28;20199;-66